sensor_id;sensor_type;location;lat;lon;timestamp;temperature;humidity
14061;DHT22;7105;43.616;1.434;2022-12-15T00:02:41;10.90;99.90
14061;DHT22;7105;43.616;1.434;2022-12-15T00:05:25;11.00;99.90
14061;DHT22;7105;43.616;1.434;2022-12-15T00:08:10;11.00;99.90
14061;DHT22;7105;43.616;1.434;2022-12-15T00:10:54;11.00;99.90
14061;DHT22;7105;43.616;1.434;2022-12-15T00:13:39;11.00;99.90
14061;DHT22;7105;43.616;1.434;2022-12-15T00:16:23;11.00;99.90
14061;DHT22;7105;43.616;1.434;2022-12-15T00:19:07;11.00;99.90
14061;DHT22;7105;43.616;1.434;2022-12-15T00:21:51;11.10;99.90
14061;DHT22;7105;43.616;1.434;2022-12-15T00:24:37;11.20;99.90
14061;DHT22;7105;43.616;1.434;2022-12-15T00:27:21;11.30;99.90
14061;DHT22;7105;43.616;1.434;2022-12-15T00:30:06;11.50;99.90
14061;DHT22;7105;43.616;1.434;2022-12-15T00:32:50;11.50;99.90
14061;DHT22;7105;43.616;1.434;2022-12-15T00:35:35;11.50;99.90
14061;DHT22;7105;43.616;1.434;2022-12-15T00:38:19;11.60;99.90
14061;DHT22;7105;43.616;1.434;2022-12-15T00:41:03;11.60;99.90
14061;DHT22;7105;43.616;1.434;2022-12-15T00:43:31;11.70;99.90
14061;DHT22;7105;43.616;1.434;2022-12-15T00:45:59;11.70;99.90
14061;DHT22;7105;43.616;1.434;2022-12-15T00:48:45;11.70;99.90
14061;DHT22;7105;43.616;1.434;2022-12-15T00:51:11;11.80;99.90
14061;DHT22;7105;43.616;1.434;2022-12-15T00:53:37;11.80;99.90
14061;DHT22;7105;43.616;1.434;2022-12-15T00:56:21;11.80;99.90
14061;DHT22;7105;43.616;1.434;2022-12-15T00:59:05;11.80;99.90
14061;DHT22;7105;43.616;1.434;2022-12-15T01:01:49;11.80;99.90
14061;DHT22;7105;43.616;1.434;2022-12-15T01:04:33;11.80;99.90
14061;DHT22;7105;43.616;1.434;2022-12-15T01:07:17;11.80;99.90
14061;DHT22;7105;43.616;1.434;2022-12-15T01:10:01;11.80;99.90
14061;DHT22;7105;43.616;1.434;2022-12-15T01:12:46;11.70;99.90
14061;DHT22;7105;43.616;1.434;2022-12-15T01:15:31;11.40;99.90
14061;DHT22;7105;43.616;1.434;2022-12-15T01:18:15;11.10;99.90
14061;DHT22;7105;43.616;1.434;2022-12-15T01:21:01;10.90;99.90
14061;DHT22;7105;43.616;1.434;2022-12-15T01:23:28;10.80;99.90
14061;DHT22;7105;43.616;1.434;2022-12-15T01:25:54;10.80;99.90
14061;DHT22;7105;43.616;1.434;2022-12-15T01:28:21;10.80;99.90
14061;DHT22;7105;43.616;1.434;2022-12-15T01:30:47;10.70;99.90
14061;DHT22;7105;43.616;1.434;2022-12-15T01:33:14;10.60;99.90
14061;DHT22;7105;43.616;1.434;2022-12-15T01:35:40;10.60;99.90
14061;DHT22;7105;43.616;1.434;2022-12-15T01:38:07;10.60;99.90
14061;DHT22;7105;43.616;1.434;2022-12-15T01:40:33;10.50;99.90
14061;DHT22;7105;43.616;1.434;2022-12-15T01:43:14;10.50;99.90
14061;DHT22;7105;43.616;1.434;2022-12-15T01:46:04;10.40;99.90
14061;DHT22;7105;43.616;1.434;2022-12-15T01:48:42;10.40;99.90
14061;DHT22;7105;43.616;1.434;2022-12-15T01:53:53;10.40;99.90
14061;DHT22;7105;43.616;1.434;2022-12-15T01:56:21;10.40;99.90
14061;DHT22;7105;43.616;1.434;2022-12-15T01:58:49;10.40;99.90
14061;DHT22;7105;43.616;1.434;2022-12-15T02:01:15;10.50;99.90
14061;DHT22;7105;43.616;1.434;2022-12-15T02:03:42;10.50;99.90
14061;DHT22;7105;43.616;1.434;2022-12-15T02:06:09;10.50;99.90
14061;DHT22;7105;43.616;1.434;2022-12-15T02:08:36;10.50;99.90
14061;DHT22;7105;43.616;1.434;2022-12-15T02:11:21;10.40;99.90
14061;DHT22;7105;43.616;1.434;2022-12-15T02:14:01;10.40;99.90
14061;DHT22;7105;43.616;1.434;2022-12-15T02:31:02;10.10;99.90
14061;DHT22;7105;43.616;1.434;2022-12-15T02:33:53;10.10;99.90
14061;DHT22;7105;43.616;1.434;2022-12-15T02:36:24;10.00;99.90
14061;DHT22;7105;43.616;1.434;2022-12-15T02:38:50;10.00;99.90
14061;DHT22;7105;43.616;1.434;2022-12-15T02:41:36;9.90;99.90
14061;DHT22;7105;43.616;1.434;2022-12-15T02:44:10;9.80;99.90
14061;DHT22;7105;43.616;1.434;2022-12-15T02:46:49;9.70;99.90
14061;DHT22;7105;43.616;1.434;2022-12-15T02:55:21;9.40;99.90
14061;DHT22;7105;43.616;1.434;2022-12-15T03:00:18;9.30;99.90
14061;DHT22;7105;43.616;1.434;2022-12-15T03:02:48;9.30;99.90
14061;DHT22;7105;43.616;1.434;2022-12-15T03:05:15;9.30;99.90
14061;DHT22;7105;43.616;1.434;2022-12-15T03:07:41;9.20;99.90
14061;DHT22;7105;43.616;1.434;2022-12-15T03:10:09;9.20;99.90
14061;DHT22;7105;43.616;1.434;2022-12-15T03:12:36;9.20;99.90
14061;DHT22;7105;43.616;1.434;2022-12-15T03:15:02;9.20;99.90
14061;DHT22;7105;43.616;1.434;2022-12-15T03:17:28;9.20;99.90
14061;DHT22;7105;43.616;1.434;2022-12-15T03:19:53;9.30;99.90
14061;DHT22;7105;43.616;1.434;2022-12-15T03:22:19;9.30;99.90
14061;DHT22;7105;43.616;1.434;2022-12-15T03:24:46;9.30;99.90
14061;DHT22;7105;43.616;1.434;2022-12-15T03:27:13;9.30;99.90
14061;DHT22;7105;43.616;1.434;2022-12-15T03:29:40;9.50;99.90
14061;DHT22;7105;43.616;1.434;2022-12-15T03:32:05;9.50;99.90
14061;DHT22;7105;43.616;1.434;2022-12-15T03:34:31;9.50;99.90
14061;DHT22;7105;43.616;1.434;2022-12-15T03:36:57;9.40;99.90
14061;DHT22;7105;43.616;1.434;2022-12-15T03:39:23;9.30;99.90
14061;DHT22;7105;43.616;1.434;2022-12-15T03:41:49;9.30;99.90
14061;DHT22;7105;43.616;1.434;2022-12-15T03:44:16;9.20;99.90
14061;DHT22;7105;43.616;1.434;2022-12-15T03:46:42;9.20;99.90
14061;DHT22;7105;43.616;1.434;2022-12-15T03:49:07;9.20;99.90
14061;DHT22;7105;43.616;1.434;2022-12-15T03:51:33;9.30;99.90
14061;DHT22;7105;43.616;1.434;2022-12-15T03:53:58;9.40;99.90
14061;DHT22;7105;43.616;1.434;2022-12-15T03:56:24;9.40;99.90
14061;DHT22;7105;43.616;1.434;2022-12-15T03:58:50;9.30;99.90
14061;DHT22;7105;43.616;1.434;2022-12-15T04:01:28;9.30;99.90
14061;DHT22;7105;43.616;1.434;2022-12-15T04:03:55;9.30;99.90
14061;DHT22;7105;43.616;1.434;2022-12-15T04:06:21;9.30;99.90
14061;DHT22;7105;43.616;1.434;2022-12-15T04:08:47;9.30;99.90
14061;DHT22;7105;43.616;1.434;2022-12-15T04:11:13;9.30;99.90
14061;DHT22;7105;43.616;1.434;2022-12-15T04:13:38;9.30;99.90
14061;DHT22;7105;43.616;1.434;2022-12-15T04:16:04;9.30;99.90
14061;DHT22;7105;43.616;1.434;2022-12-15T04:18:30;9.30;99.90
14061;DHT22;7105;43.616;1.434;2022-12-15T04:20:56;9.30;99.90
14061;DHT22;7105;43.616;1.434;2022-12-15T04:23:22;9.30;99.90
14061;DHT22;7105;43.616;1.434;2022-12-15T04:25:47;9.40;99.90
14061;DHT22;7105;43.616;1.434;2022-12-15T04:28:31;9.50;99.90
14061;DHT22;7105;43.616;1.434;2022-12-15T04:31:22;9.60;99.90
14061;DHT22;7105;43.616;1.434;2022-12-15T04:34:13;9.60;99.90
14061;DHT22;7105;43.616;1.434;2022-12-15T04:36:57;9.60;99.90
14061;DHT22;7105;43.616;1.434;2022-12-15T04:39:45;9.70;99.90
14061;DHT22;7105;43.616;1.434;2022-12-15T04:42:32;9.70;99.90
14061;DHT22;7105;43.616;1.434;2022-12-15T04:45:18;9.80;99.90
14061;DHT22;7105;43.616;1.434;2022-12-15T04:48:03;9.70;99.90
14061;DHT22;7105;43.616;1.434;2022-12-15T04:50:47;9.60;99.90
14061;DHT22;7105;43.616;1.434;2022-12-15T04:53:31;9.60;99.90
14061;DHT22;7105;43.616;1.434;2022-12-15T04:56:16;9.60;99.90
14061;DHT22;7105;43.616;1.434;2022-12-15T04:59:01;9.60;99.90
14061;DHT22;7105;43.616;1.434;2022-12-15T05:01:45;9.60;99.90
14061;DHT22;7105;43.616;1.434;2022-12-15T05:04:29;9.60;99.90
14061;DHT22;7105;43.616;1.434;2022-12-15T05:07:14;9.60;99.90
14061;DHT22;7105;43.616;1.434;2022-12-15T05:09:58;9.60;99.90
14061;DHT22;7105;43.616;1.434;2022-12-15T05:12:42;9.60;99.90
14061;DHT22;7105;43.616;1.434;2022-12-15T05:15:26;9.60;99.90
14061;DHT22;7105;43.616;1.434;2022-12-15T05:18:11;9.80;99.90
14061;DHT22;7105;43.616;1.434;2022-12-15T05:20:57;9.70;99.90
14061;DHT22;7105;43.616;1.434;2022-12-15T05:23:42;9.60;99.90
14061;DHT22;7105;43.616;1.434;2022-12-15T05:26:26;9.50;99.90
14061;DHT22;7105;43.616;1.434;2022-12-15T05:29:10;9.40;99.90
14061;DHT22;7105;43.616;1.434;2022-12-15T05:31:54;9.40;99.90
14061;DHT22;7105;43.616;1.434;2022-12-15T05:34:28;9.30;99.90
14061;DHT22;7105;43.616;1.434;2022-12-15T05:36:55;9.30;99.90
14061;DHT22;7105;43.616;1.434;2022-12-15T05:39:21;9.30;99.90
14061;DHT22;7105;43.616;1.434;2022-12-15T05:41:47;9.30;99.90
14061;DHT22;7105;43.616;1.434;2022-12-15T05:44:13;9.30;99.90
14061;DHT22;7105;43.616;1.434;2022-12-15T05:46:39;9.40;99.90
14061;DHT22;7105;43.616;1.434;2022-12-15T05:49:07;9.50;99.90
14061;DHT22;7105;43.616;1.434;2022-12-15T05:51:33;9.50;99.90
14061;DHT22;7105;43.616;1.434;2022-12-15T05:54:01;9.50;99.90
14061;DHT22;7105;43.616;1.434;2022-12-15T05:56:28;9.50;99.90
14061;DHT22;7105;43.616;1.434;2022-12-15T05:58:55;9.50;99.90
14061;DHT22;7105;43.616;1.434;2022-12-15T06:01:22;9.50;99.90
14061;DHT22;7105;43.616;1.434;2022-12-15T06:03:47;9.60;99.90
14061;DHT22;7105;43.616;1.434;2022-12-15T06:06:13;9.50;99.90
14061;DHT22;7105;43.616;1.434;2022-12-15T06:08:40;9.50;99.90
14061;DHT22;7105;43.616;1.434;2022-12-15T06:11:08;9.50;99.90
14061;DHT22;7105;43.616;1.434;2022-12-15T06:13:35;9.50;99.90
14061;DHT22;7105;43.616;1.434;2022-12-15T06:16:05;9.60;99.90
14061;DHT22;7105;43.616;1.434;2022-12-15T06:18:34;9.60;99.90
14061;DHT22;7105;43.616;1.434;2022-12-15T06:21:02;9.50;99.90
14061;DHT22;7105;43.616;1.434;2022-12-15T06:23:28;9.60;99.90
14061;DHT22;7105;43.616;1.434;2022-12-15T06:25:55;9.70;99.90
14061;DHT22;7105;43.616;1.434;2022-12-15T06:28:21;9.70;99.90
14061;DHT22;7105;43.616;1.434;2022-12-15T06:30:54;9.70;99.90
14061;DHT22;7105;43.616;1.434;2022-12-15T06:33:21;9.70;99.90
14061;DHT22;7105;43.616;1.434;2022-12-15T06:35:47;9.70;99.90
14061;DHT22;7105;43.616;1.434;2022-12-15T06:38:13;9.70;99.90
14061;DHT22;7105;43.616;1.434;2022-12-15T06:40:39;9.60;99.90
14061;DHT22;7105;43.616;1.434;2022-12-15T06:43:08;9.70;99.90
14061;DHT22;7105;43.616;1.434;2022-12-15T06:45:34;9.70;99.90
14061;DHT22;7105;43.616;1.434;2022-12-15T06:48:01;9.70;99.90
14061;DHT22;7105;43.616;1.434;2022-12-15T06:50:27;9.70;99.90
14061;DHT22;7105;43.616;1.434;2022-12-15T06:52:52;9.70;99.90
14061;DHT22;7105;43.616;1.434;2022-12-15T06:55:18;9.70;99.90
14061;DHT22;7105;43.616;1.434;2022-12-15T06:57:48;9.70;99.90
14061;DHT22;7105;43.616;1.434;2022-12-15T07:00:14;9.70;99.90
14061;DHT22;7105;43.616;1.434;2022-12-15T07:02:43;9.70;99.90
14061;DHT22;7105;43.616;1.434;2022-12-15T07:05:08;9.70;99.90
14061;DHT22;7105;43.616;1.434;2022-12-15T07:07:34;9.70;99.90
14061;DHT22;7105;43.616;1.434;2022-12-15T07:10:00;9.70;99.90
14061;DHT22;7105;43.616;1.434;2022-12-15T07:12:25;9.70;99.90
14061;DHT22;7105;43.616;1.434;2022-12-15T07:14:51;9.70;99.90
14061;DHT22;7105;43.616;1.434;2022-12-15T07:17:17;9.70;99.90
14061;DHT22;7105;43.616;1.434;2022-12-15T07:19:42;9.60;99.90
14061;DHT22;7105;43.616;1.434;2022-12-15T07:22:08;9.50;99.90
14061;DHT22;7105;43.616;1.434;2022-12-15T07:24:34;9.50;99.90
14061;DHT22;7105;43.616;1.434;2022-12-15T07:26:59;9.50;99.90
14061;DHT22;7105;43.616;1.434;2022-12-15T07:29:25;9.50;99.90
14061;DHT22;7105;43.616;1.434;2022-12-15T07:31:51;9.60;99.90
14061;DHT22;7105;43.616;1.434;2022-12-15T07:34:17;9.60;99.90
14061;DHT22;7105;43.616;1.434;2022-12-15T07:36:42;9.60;99.90
14061;DHT22;7105;43.616;1.434;2022-12-15T07:39:08;9.50;99.90
14061;DHT22;7105;43.616;1.434;2022-12-15T07:41:34;9.60;99.90
14061;DHT22;7105;43.616;1.434;2022-12-15T07:43:59;9.50;99.90
14061;DHT22;7105;43.616;1.434;2022-12-15T07:46:27;9.50;99.90
14061;DHT22;7105;43.616;1.434;2022-12-15T07:48:53;9.50;99.90
14061;DHT22;7105;43.616;1.434;2022-12-15T07:51:19;9.50;99.90
14061;DHT22;7105;43.616;1.434;2022-12-15T07:53:46;9.60;99.90
14061;DHT22;7105;43.616;1.434;2022-12-15T07:56:13;9.70;99.90
14061;DHT22;7105;43.616;1.434;2022-12-15T07:58:39;9.60;99.90
14061;DHT22;7105;43.616;1.434;2022-12-15T08:01:08;9.60;99.90
14061;DHT22;7105;43.616;1.434;2022-12-15T08:03:35;9.60;99.90
14061;DHT22;7105;43.616;1.434;2022-12-15T08:06:05;9.50;99.90
14061;DHT22;7105;43.616;1.434;2022-12-15T08:08:32;9.50;99.90
14061;DHT22;7105;43.616;1.434;2022-12-15T08:10:57;9.50;99.90
14061;DHT22;7105;43.616;1.434;2022-12-15T08:13:23;9.50;99.90
14061;DHT22;7105;43.616;1.434;2022-12-15T08:15:52;9.50;99.90
14061;DHT22;7105;43.616;1.434;2022-12-15T08:18:19;9.40;99.90
14061;DHT22;7105;43.616;1.434;2022-12-15T08:20:45;9.50;99.90
14061;DHT22;7105;43.616;1.434;2022-12-15T08:23:10;9.50;99.90
14061;DHT22;7105;43.616;1.434;2022-12-15T08:25:36;9.50;99.90
14061;DHT22;7105;43.616;1.434;2022-12-15T08:28:02;9.60;99.90
14061;DHT22;7105;43.616;1.434;2022-12-15T08:30:31;9.50;99.90
14061;DHT22;7105;43.616;1.434;2022-12-15T08:32:57;9.60;99.90
14061;DHT22;7105;43.616;1.434;2022-12-15T08:35:23;9.60;99.90
14061;DHT22;7105;43.616;1.434;2022-12-15T08:37:49;9.60;99.90
14061;DHT22;7105;43.616;1.434;2022-12-15T08:40:14;9.60;99.90
14061;DHT22;7105;43.616;1.434;2022-12-15T08:42:40;9.60;99.90
14061;DHT22;7105;43.616;1.434;2022-12-15T08:45:06;9.60;99.90
14061;DHT22;7105;43.616;1.434;2022-12-15T08:47:32;9.70;99.90
14061;DHT22;7105;43.616;1.434;2022-12-15T08:49:58;9.70;99.90
14061;DHT22;7105;43.616;1.434;2022-12-15T08:52:24;9.60;99.90
14061;DHT22;7105;43.616;1.434;2022-12-15T08:54:50;9.60;99.90
14061;DHT22;7105;43.616;1.434;2022-12-15T08:57:16;9.60;99.90
14061;DHT22;7105;43.616;1.434;2022-12-15T08:59:41;9.70;99.90
14061;DHT22;7105;43.616;1.434;2022-12-15T09:02:10;9.70;99.90
14061;DHT22;7105;43.616;1.434;2022-12-15T09:04:37;9.70;99.90
14061;DHT22;7105;43.616;1.434;2022-12-15T09:07:05;9.70;99.90
14061;DHT22;7105;43.616;1.434;2022-12-15T09:09:31;9.80;99.90
14061;DHT22;7105;43.616;1.434;2022-12-15T09:11:56;9.90;99.90
14061;DHT22;7105;43.616;1.434;2022-12-15T09:14:22;9.80;99.90
14061;DHT22;7105;43.616;1.434;2022-12-15T09:16:48;9.70;99.90
14061;DHT22;7105;43.616;1.434;2022-12-15T09:19:14;9.70;99.90
14061;DHT22;7105;43.616;1.434;2022-12-15T09:21:39;9.70;99.90
14061;DHT22;7105;43.616;1.434;2022-12-15T09:24:13;9.70;99.90
14061;DHT22;7105;43.616;1.434;2022-12-15T09:26:39;9.70;99.90
14061;DHT22;7105;43.616;1.434;2022-12-15T09:29:09;9.80;99.90
14061;DHT22;7105;43.616;1.434;2022-12-15T09:31:36;9.80;99.90
14061;DHT22;7105;43.616;1.434;2022-12-15T09:34:03;9.90;99.90
14061;DHT22;7105;43.616;1.434;2022-12-15T09:36:30;10.00;99.90
14061;DHT22;7105;43.616;1.434;2022-12-15T09:38:57;10.00;99.90
14061;DHT22;7105;43.616;1.434;2022-12-15T09:41:26;10.20;99.90
14061;DHT22;7105;43.616;1.434;2022-12-15T09:44:11;10.30;99.90
14061;DHT22;7105;43.616;1.434;2022-12-15T09:49:55;10.50;99.90
14061;DHT22;7105;43.616;1.434;2022-12-15T09:52:25;10.50;99.90
14061;DHT22;7105;43.616;1.434;2022-12-15T09:54:51;10.40;99.90
14061;DHT22;7105;43.616;1.434;2022-12-15T10:00:18;10.50;99.90
14061;DHT22;7105;43.616;1.434;2022-12-15T10:03:01;10.60;99.90
14061;DHT22;7105;43.616;1.434;2022-12-15T10:08:38;10.90;99.90
14061;DHT22;7105;43.616;1.434;2022-12-15T10:14:08;11.00;99.90
14061;DHT22;7105;43.616;1.434;2022-12-15T10:19:45;11.00;99.90
14061;DHT22;7105;43.616;1.434;2022-12-15T10:22:20;10.90;99.90
14061;DHT22;7105;43.616;1.434;2022-12-15T10:24:47;10.90;99.90
14061;DHT22;7105;43.616;1.434;2022-12-15T10:30:02;10.80;99.90
14061;DHT22;7105;43.616;1.434;2022-12-15T10:35:11;10.70;99.90
14061;DHT22;7105;43.616;1.434;2022-12-15T10:37:38;10.70;99.90
14061;DHT22;7105;43.616;1.434;2022-12-15T10:40:05;10.70;99.90
14061;DHT22;7105;43.616;1.434;2022-12-15T10:42:31;10.70;99.90
14061;DHT22;7105;43.616;1.434;2022-12-15T10:45:34;10.80;99.90
14061;DHT22;7105;43.616;1.434;2022-12-15T10:48:02;10.90;99.90
14061;DHT22;7105;43.616;1.434;2022-12-15T10:50:32;10.90;99.90
14061;DHT22;7105;43.616;1.434;2022-12-15T10:52:58;11.00;99.90
14061;DHT22;7105;43.616;1.434;2022-12-15T10:55:39;11.00;99.90
14061;DHT22;7105;43.616;1.434;2022-12-15T10:58:20;11.20;99.90
14061;DHT22;7105;43.616;1.434;2022-12-15T11:00:47;11.20;99.90
14061;DHT22;7105;43.616;1.434;2022-12-15T11:03:23;11.20;99.90
14061;DHT22;7105;43.616;1.434;2022-12-15T11:05:54;11.20;99.90
14061;DHT22;7105;43.616;1.434;2022-12-15T11:08:21;11.30;99.90
14061;DHT22;7105;43.616;1.434;2022-12-15T11:10:50;11.40;99.90
14061;DHT22;7105;43.616;1.434;2022-12-15T11:13:35;11.40;99.90
14061;DHT22;7105;43.616;1.434;2022-12-15T11:16:18;11.50;99.90
14061;DHT22;7105;43.616;1.434;2022-12-15T11:18:58;11.40;99.90
14061;DHT22;7105;43.616;1.434;2022-12-15T11:21:31;11.40;99.90
14061;DHT22;7105;43.616;1.434;2022-12-15T11:27:00;11.50;99.90
14061;DHT22;7105;43.616;1.434;2022-12-15T11:30:37;11.60;99.90
14061;DHT22;7105;43.616;1.434;2022-12-15T11:32:36;11.60;99.90
14061;DHT22;7105;43.616;1.434;2022-12-15T11:35:03;11.50;99.90
14061;DHT22;7105;43.616;1.434;2022-12-15T11:38:32;11.50;99.90
14061;DHT22;7105;43.616;1.434;2022-12-15T11:40:39;11.60;99.90
14061;DHT22;7105;43.616;1.434;2022-12-15T11:48:16;11.60;99.90
14061;DHT22;7105;43.616;1.434;2022-12-15T11:51:30;11.70;99.90
14061;DHT22;7105;43.616;1.434;2022-12-15T11:54:09;11.70;99.90
14061;DHT22;7105;43.616;1.434;2022-12-15T11:56:41;11.80;99.90
14061;DHT22;7105;43.616;1.434;2022-12-15T11:59:37;11.90;99.90
14061;DHT22;7105;43.616;1.434;2022-12-15T12:07:52;11.80;99.90
14061;DHT22;7105;43.616;1.434;2022-12-15T12:15:53;11.80;99.90
14061;DHT22;7105;43.616;1.434;2022-12-15T12:18:29;11.80;99.90
14061;DHT22;7105;43.616;1.434;2022-12-15T12:21:05;11.80;99.90
14061;DHT22;7105;43.616;1.434;2022-12-15T12:23:37;11.80;99.90
14061;DHT22;7105;43.616;1.434;2022-12-15T12:28:49;11.90;99.90
14061;DHT22;7105;43.616;1.434;2022-12-15T12:34:02;12.10;99.90
14061;DHT22;7105;43.616;1.434;2022-12-15T12:36:30;12.10;99.90
14061;DHT22;7105;43.616;1.434;2022-12-15T12:38:57;12.10;99.90
14061;DHT22;7105;43.616;1.434;2022-12-15T12:44:40;12.10;99.90
14061;DHT22;7105;43.616;1.434;2022-12-15T12:47:14;12.20;99.90
14061;DHT22;7105;43.616;1.434;2022-12-15T12:49:45;12.20;99.90
14061;DHT22;7105;43.616;1.434;2022-12-15T12:52:22;12.20;99.90
14061;DHT22;7105;43.616;1.434;2022-12-15T12:54:59;12.30;99.90
14061;DHT22;7105;43.616;1.434;2022-12-15T12:57:38;12.20;99.90
14061;DHT22;7105;43.616;1.434;2022-12-15T13:10:38;11.90;99.90
14061;DHT22;7105;43.616;1.434;2022-12-15T13:16:12;11.90;99.90
14061;DHT22;7105;43.616;1.434;2022-12-15T13:27:22;12.20;99.90
14061;DHT22;7105;43.616;1.434;2022-12-15T13:32:40;12.20;99.90
14061;DHT22;7105;43.616;1.434;2022-12-15T13:35:15;12.20;99.90
14061;DHT22;7105;43.616;1.434;2022-12-15T13:37:50;12.10;99.90
14061;DHT22;7105;43.616;1.434;2022-12-15T13:43:07;12.20;99.90
14061;DHT22;7105;43.616;1.434;2022-12-15T13:53:42;12.60;99.90
14061;DHT22;7105;43.616;1.434;2022-12-15T13:59:06;12.50;99.90
14061;DHT22;7105;43.616;1.434;2022-12-15T14:01:36;12.70;99.90
14061;DHT22;7105;43.616;1.434;2022-12-15T14:04:11;12.70;99.90
14061;DHT22;7105;43.616;1.434;2022-12-15T14:09:29;12.60;99.90
14061;DHT22;7105;43.616;1.434;2022-12-15T14:11:57;12.60;99.90
14061;DHT22;7105;43.616;1.434;2022-12-15T14:14:44;12.70;99.90
14061;DHT22;7105;43.616;1.434;2022-12-15T14:17:14;12.90;99.90
14061;DHT22;7105;43.616;1.434;2022-12-15T14:19:45;13.00;99.90
14061;DHT22;7105;43.616;1.434;2022-12-15T14:22:21;13.20;99.90
14061;DHT22;7105;43.616;1.434;2022-12-15T14:24:49;13.40;99.90
14061;DHT22;7105;43.616;1.434;2022-12-15T14:27:23;13.40;99.90
14061;DHT22;7105;43.616;1.434;2022-12-15T14:29:49;13.40;99.90
14061;DHT22;7105;43.616;1.434;2022-12-15T14:32:32;13.50;99.90
14061;DHT22;7105;43.616;1.434;2022-12-15T14:34:58;13.50;99.90
14061;DHT22;7105;43.616;1.434;2022-12-15T14:37:25;13.50;99.90
14061;DHT22;7105;43.616;1.434;2022-12-15T14:39:52;13.30;99.90
14061;DHT22;7105;43.616;1.434;2022-12-15T14:42:22;13.30;99.90
14061;DHT22;7105;43.616;1.434;2022-12-15T14:44:48;13.30;99.90
14061;DHT22;7105;43.616;1.434;2022-12-15T14:47:23;13.30;99.90
14061;DHT22;7105;43.616;1.434;2022-12-15T14:49:52;13.20;99.90
14061;DHT22;7105;43.616;1.434;2022-12-15T14:54:55;13.20;99.90
14061;DHT22;7105;43.616;1.434;2022-12-15T14:57:27;13.40;99.90
14061;DHT22;7105;43.616;1.434;2022-12-15T14:59:54;13.50;99.90
14061;DHT22;7105;43.616;1.434;2022-12-15T15:02:26;13.40;99.90
14061;DHT22;7105;43.616;1.434;2022-12-15T15:07:21;13.10;99.90
14061;DHT22;7105;43.616;1.434;2022-12-15T15:09:48;12.90;99.90
14061;DHT22;7105;43.616;1.434;2022-12-15T15:12:21;12.90;99.90
14061;DHT22;7105;43.616;1.434;2022-12-15T15:14:52;12.90;99.90
14061;DHT22;7105;43.616;1.434;2022-12-15T15:19:56;12.80;99.90
14061;DHT22;7105;43.616;1.434;2022-12-15T15:22:39;12.70;99.90
14061;DHT22;7105;43.616;1.434;2022-12-15T15:30:47;12.50;99.90
14061;DHT22;7105;43.616;1.434;2022-12-15T15:33:14;12.50;99.90
14061;DHT22;7105;43.616;1.434;2022-12-15T15:35:41;12.40;99.90
14061;DHT22;7105;43.616;1.434;2022-12-15T15:38:23;12.40;99.90
14061;DHT22;7105;43.616;1.434;2022-12-15T15:40:51;12.40;99.90
14061;DHT22;7105;43.616;1.434;2022-12-15T15:43:17;12.40;99.90
14061;DHT22;7105;43.616;1.434;2022-12-15T15:45:44;12.40;99.90
14061;DHT22;7105;43.616;1.434;2022-12-15T15:48:37;12.30;99.90
14061;DHT22;7105;43.616;1.434;2022-12-15T15:51:04;12.30;99.90
14061;DHT22;7105;43.616;1.434;2022-12-15T15:53:32;12.30;99.90
14061;DHT22;7105;43.616;1.434;2022-12-15T15:55:58;12.30;99.90
14061;DHT22;7105;43.616;1.434;2022-12-15T15:58:25;12.30;99.90
14061;DHT22;7105;43.616;1.434;2022-12-15T16:00:51;12.30;99.90
14061;DHT22;7105;43.616;1.434;2022-12-15T16:03:18;12.20;99.90
14061;DHT22;7105;43.616;1.434;2022-12-15T16:05:44;12.30;99.90
14061;DHT22;7105;43.616;1.434;2022-12-15T16:08:30;12.20;99.90
14061;DHT22;7105;43.616;1.434;2022-12-15T16:10:57;12.00;99.90
14061;DHT22;7105;43.616;1.434;2022-12-15T16:13:22;11.90;99.90
14061;DHT22;7105;43.616;1.434;2022-12-15T16:15:48;11.70;99.90
14061;DHT22;7105;43.616;1.434;2022-12-15T16:18:14;11.60;99.90
14061;DHT22;7105;43.616;1.434;2022-12-15T16:20:41;11.70;99.90
14061;DHT22;7105;43.616;1.434;2022-12-15T16:23:13;11.50;99.90
14061;DHT22;7105;43.616;1.434;2022-12-15T16:25:45;11.50;99.90
14061;DHT22;7105;43.616;1.434;2022-12-15T16:28:20;11.50;99.90
14061;DHT22;7105;43.616;1.434;2022-12-15T16:30:46;11.50;99.90
14061;DHT22;7105;43.616;1.434;2022-12-15T16:33:12;11.50;99.90
14061;DHT22;7105;43.616;1.434;2022-12-15T16:35:40;11.50;99.90
14061;DHT22;7105;43.616;1.434;2022-12-15T16:38:25;11.50;99.90
14061;DHT22;7105;43.616;1.434;2022-12-15T16:40:51;11.40;99.90
14061;DHT22;7105;43.616;1.434;2022-12-15T16:43:22;11.40;99.90
14061;DHT22;7105;43.616;1.434;2022-12-15T16:45:50;11.30;99.90
14061;DHT22;7105;43.616;1.434;2022-12-15T16:48:16;11.40;99.90
14061;DHT22;7105;43.616;1.434;2022-12-15T16:50:44;11.50;99.90
14061;DHT22;7105;43.616;1.434;2022-12-15T16:53:22;11.40;99.90
14061;DHT22;7105;43.616;1.434;2022-12-15T16:55:56;11.40;99.90
14061;DHT22;7105;43.616;1.434;2022-12-15T16:58:23;11.40;99.90
14061;DHT22;7105;43.616;1.434;2022-12-15T17:00:50;11.30;99.90
14061;DHT22;7105;43.616;1.434;2022-12-15T17:03:18;11.30;99.90
14061;DHT22;7105;43.616;1.434;2022-12-15T17:05:47;11.40;99.90
14061;DHT22;7105;43.616;1.434;2022-12-15T17:08:37;11.60;99.90
14061;DHT22;7105;43.616;1.434;2022-12-15T17:11:17;11.70;99.90
14061;DHT22;7105;43.616;1.434;2022-12-15T17:13:43;11.60;99.90
14061;DHT22;7105;43.616;1.434;2022-12-15T17:16:12;11.50;99.90
14061;DHT22;7105;43.616;1.434;2022-12-15T17:18:41;11.80;99.90
14061;DHT22;7105;43.616;1.434;2022-12-15T17:23:36;11.50;99.90
14061;DHT22;7105;43.616;1.434;2022-12-15T17:26:02;11.60;99.90
14061;DHT22;7105;43.616;1.434;2022-12-15T17:28:32;11.70;99.90
14061;DHT22;7105;43.616;1.434;2022-12-15T17:31:01;11.50;99.90
14061;DHT22;7105;43.616;1.434;2022-12-15T17:33:29;11.30;99.90
14061;DHT22;7105;43.616;1.434;2022-12-15T17:36:15;11.50;99.90
14061;DHT22;7105;43.616;1.434;2022-12-15T17:38:41;11.70;99.90
14061;DHT22;7105;43.616;1.434;2022-12-15T17:41:11;11.50;99.90
14061;DHT22;7105;43.616;1.434;2022-12-15T17:43:38;11.20;99.90
14061;DHT22;7105;43.616;1.434;2022-12-15T17:46:05;11.30;99.90
14061;DHT22;7105;43.616;1.434;2022-12-15T17:48:30;11.60;99.90
14061;DHT22;7105;43.616;1.434;2022-12-15T17:50:57;11.50;99.90
14061;DHT22;7105;43.616;1.434;2022-12-15T17:53:23;11.20;99.90
14061;DHT22;7105;43.616;1.434;2022-12-15T17:55:50;11.20;99.90
14061;DHT22;7105;43.616;1.434;2022-12-15T17:58:20;11.50;99.90
14061;DHT22;7105;43.616;1.434;2022-12-15T18:00:49;11.50;99.90
14061;DHT22;7105;43.616;1.434;2022-12-15T18:03:16;11.30;99.90
14061;DHT22;7105;43.616;1.434;2022-12-15T18:05:42;11.30;99.90
14061;DHT22;7105;43.616;1.434;2022-12-15T18:08:25;11.60;99.90
14061;DHT22;7105;43.616;1.434;2022-12-15T18:10:53;11.60;99.90
14061;DHT22;7105;43.616;1.434;2022-12-15T18:13:20;11.50;99.90
14061;DHT22;7105;43.616;1.434;2022-12-15T18:15:47;11.50;99.90
14061;DHT22;7105;43.616;1.434;2022-12-15T18:18:14;11.60;99.90
14061;DHT22;7105;43.616;1.434;2022-12-15T18:20:40;11.60;99.90
14061;DHT22;7105;43.616;1.434;2022-12-15T18:23:23;11.50;99.90
14061;DHT22;7105;43.616;1.434;2022-12-15T18:25:50;11.30;99.90
14061;DHT22;7105;43.616;1.434;2022-12-15T18:28:21;11.40;99.90
14061;DHT22;7105;43.616;1.434;2022-12-15T18:30:48;11.70;99.90
14061;DHT22;7105;43.616;1.434;2022-12-15T18:33:16;11.40;99.90